Nightmute, Alaska
Current Conditions -  °F | °C
As of 8:56 AM on Thursday 29 Jan 2015 (Local Time) from PAOO Reporting Station
Clear Clear  
Wind Chill: -11°   Ceiling: Unl
Heat Index:   Visibility: 10mi
Dew Point: -9°   Wind: 22mph
Humidity: 44%   Direction: 10°N
Pressure: 30.52"   Gusts: NA
Location:  60.48°N, 164.73°W
Report Text: PAOO 291756Z AUTO 01019KT 10SM CLR M13/M23 A3052 RMK AO2 TSNO 50007 T11271227 11111 21155 PK WND 34028/1726 SLP337 $
Loading
Personal Weather Stations






























Interactive Weather Map New forecast layout! Learn more

10-Day Weather Forecast

Advertisements
Track Severe Weather on mobile